sensor_id;sensor_type;location;lat;lon;timestamp;temperature;humidity
14585;DHT22;7379;51.506;11.876;2023-04-29T00:00:13;11.50;70.80
14585;DHT22;7379;51.506;11.876;2023-04-29T00:02:41;11.50;70.90
14585;DHT22;7379;51.506;11.876;2023-04-29T00:05:08;11.50;70.90
14585;DHT22;7379;51.506;11.876;2023-04-29T00:07:35;11.50;71.00
14585;DHT22;7379;51.506;11.876;2023-04-29T00:10:03;11.50;71.00
14585;DHT22;7379;51.506;11.876;2023-04-29T00:12:30;11.50;71.20
14585;DHT22;7379;51.506;11.876;2023-04-29T00:14:57;11.50;71.40
14585;DHT22;7379;51.506;11.876;2023-04-29T00:17:25;11.50;71.50
14585;DHT22;7379;51.506;11.876;2023-04-29T00:19:53;11.50;71.70
14585;DHT22;7379;51.506;11.876;2023-04-29T00:22:20;11.50;71.70
14585;DHT22;7379;51.506;11.876;2023-04-29T00:24:47;11.50;71.90
14585;DHT22;7379;51.506;11.876;2023-04-29T00:27:15;11.50;72.10
14585;DHT22;7379;51.506;11.876;2023-04-29T00:29:42;11.50;72.10
14585;DHT22;7379;51.506;11.876;2023-04-29T00:32:09;11.50;72.10
14585;DHT22;7379;51.506;11.876;2023-04-29T00:34:35;11.50;72.10
14585;DHT22;7379;51.506;11.876;2023-04-29T00:37:04;11.40;72.00
14585;DHT22;7379;51.506;11.876;2023-04-29T00:39:30;11.40;71.90
14585;DHT22;7379;51.506;11.876;2023-04-29T00:41:57;11.50;72.10
14585;DHT22;7379;51.506;11.876;2023-04-29T00:44:24;11.40;71.90
14585;DHT22;7379;51.506;11.876;2023-04-29T00:46:51;11.40;71.90
14585;DHT22;7379;51.506;11.876;2023-04-29T00:49:18;11.50;72.00
14585;DHT22;7379;51.506;11.876;2023-04-29T00:51:45;11.40;71.90
14585;DHT22;7379;51.506;11.876;2023-04-29T00:54:15;11.40;71.90
14585;DHT22;7379;51.506;11.876;2023-04-29T00:56:44;11.40;71.90
14585;DHT22;7379;51.506;11.876;2023-04-29T00:59:11;11.40;71.90
14585;DHT22;7379;51.506;11.876;2023-04-29T01:01:40;11.40;71.90
14585;DHT22;7379;51.506;11.876;2023-04-29T01:04:07;11.40;71.80
14585;DHT22;7379;51.506;11.876;2023-04-29T01:06:44;11.40;71.80
14585;DHT22;7379;51.506;11.876;2023-04-29T01:09:38;11.40;71.80
14585;DHT22;7379;51.506;11.876;2023-04-29T01:12:17;11.40;71.80
14585;DHT22;7379;51.506;11.876;2023-04-29T01:14:51;11.40;71.80
14585;DHT22;7379;51.506;11.876;2023-04-29T01:17:24;11.40;71.80
14585;DHT22;7379;51.506;11.876;2023-04-29T01:19:54;11.40;71.80
14585;DHT22;7379;51.506;11.876;2023-04-29T01:22:22;11.40;71.80
14585;DHT22;7379;51.506;11.876;2023-04-29T01:24:50;11.40;71.80
14585;DHT22;7379;51.506;11.876;2023-04-29T01:27:27;11.40;71.70
14585;DHT22;7379;51.506;11.876;2023-04-29T01:30:00;11.40;71.90
14585;DHT22;7379;51.506;11.876;2023-04-29T01:32:40;11.40;71.90
14585;DHT22;7379;51.506;11.876;2023-04-29T01:35:15;11.40;72.10
14585;DHT22;7379;51.506;11.876;2023-04-29T01:37:51;11.40;72.50
14585;DHT22;7379;51.506;11.876;2023-04-29T01:40:26;11.40;72.40
14585;DHT22;7379;51.506;11.876;2023-04-29T01:43:00;11.40;72.30
14585;DHT22;7379;51.506;11.876;2023-04-29T01:45:28;11.40;73.10
14585;DHT22;7379;51.506;11.876;2023-04-29T01:47:56;11.40;72.40
14585;DHT22;7379;51.506;11.876;2023-04-29T01:50:24;11.40;72.40
14585;DHT22;7379;51.506;11.876;2023-04-29T01:52:51;11.40;72.50
14585;DHT22;7379;51.506;11.876;2023-04-29T01:55:18;11.40;72.50
14585;DHT22;7379;51.506;11.876;2023-04-29T01:57:47;11.40;72.50
14585;DHT22;7379;51.506;11.876;2023-04-29T02:00:14;11.40;72.60
14585;DHT22;7379;51.506;11.876;2023-04-29T02:02:41;11.40;72.60
14585;DHT22;7379;51.506;11.876;2023-04-29T02:05:08;11.40;72.70
14585;DHT22;7379;51.506;11.876;2023-04-29T02:07:35;11.40;73.40
14585;DHT22;7379;51.506;11.876;2023-04-29T02:10:02;11.40;72.60
14585;DHT22;7379;51.506;11.876;2023-04-29T02:12:29;11.40;72.60
14585;DHT22;7379;51.506;11.876;2023-04-29T02:14:57;11.40;72.70
14585;DHT22;7379;51.506;11.876;2023-04-29T02:17:24;11.40;72.70
14585;DHT22;7379;51.506;11.876;2023-04-29T02:19:51;11.40;72.80
14585;DHT22;7379;51.506;11.876;2023-04-29T02:22:19;11.40;72.80
14585;DHT22;7379;51.506;11.876;2023-04-29T02:24:46;11.40;73.40
14585;DHT22;7379;51.506;11.876;2023-04-29T02:27:13;11.40;72.90
14585;DHT22;7379;51.506;11.876;2023-04-29T02:29:40;11.40;73.00
14585;DHT22;7379;51.506;11.876;2023-04-29T02:32:08;11.40;73.10
14585;DHT22;7379;51.506;11.876;2023-04-29T02:34:35;11.40;73.00
14585;DHT22;7379;51.506;11.876;2023-04-29T02:37:02;11.40;73.00
14585;DHT22;7379;51.506;11.876;2023-04-29T02:39:30;11.40;73.00
14585;DHT22;7379;51.506;11.876;2023-04-29T02:41:56;11.40;73.10
14585;DHT22;7379;51.506;11.876;2023-04-29T02:44:23;11.40;73.20
14585;DHT22;7379;51.506;11.876;2023-04-29T02:46:50;11.40;73.60
14585;DHT22;7379;51.506;11.876;2023-04-29T02:49:18;11.40;73.80
14585;DHT22;7379;51.506;11.876;2023-04-29T02:51:45;11.40;73.70
14585;DHT22;7379;51.506;11.876;2023-04-29T02:54:14;11.40;73.60
14585;DHT22;7379;51.506;11.876;2023-04-29T02:56:41;11.40;73.60
14585;DHT22;7379;51.506;11.876;2023-04-29T02:59:08;11.40;73.50
14585;DHT22;7379;51.506;11.876;2023-04-29T03:01:35;11.40;73.50
14585;DHT22;7379;51.506;11.876;2023-04-29T03:04:03;11.40;73.40
14585;DHT22;7379;51.506;11.876;2023-04-29T03:06:32;11.40;73.40
14585;DHT22;7379;51.506;11.876;2023-04-29T03:08:58;11.40;73.40
14585;DHT22;7379;51.506;11.876;2023-04-29T03:11:25;11.40;73.50
14585;DHT22;7379;51.506;11.876;2023-04-29T03:13:52;11.40;73.40
14585;DHT22;7379;51.506;11.876;2023-04-29T03:16:19;11.40;73.40
14585;DHT22;7379;51.506;11.876;2023-04-29T03:18:46;11.40;73.40
14585;DHT22;7379;51.506;11.876;2023-04-29T03:21:14;11.40;73.40
14585;DHT22;7379;51.506;11.876;2023-04-29T03:23:42;11.40;73.30
14585;DHT22;7379;51.506;11.876;2023-04-29T03:26:09;11.40;73.40
14585;DHT22;7379;51.506;11.876;2023-04-29T03:28:36;11.40;73.40
14585;DHT22;7379;51.506;11.876;2023-04-29T03:31:03;11.40;73.50
14585;DHT22;7379;51.506;11.876;2023-04-29T03:33:29;11.40;73.70
14585;DHT22;7379;51.506;11.876;2023-04-29T03:35:56;11.40;73.70
14585;DHT22;7379;51.506;11.876;2023-04-29T03:38:23;11.40;73.90
14585;DHT22;7379;51.506;11.876;2023-04-29T03:40:51;11.40;74.00
14585;DHT22;7379;51.506;11.876;2023-04-29T03:43:18;11.40;73.80
14585;DHT22;7379;51.506;11.876;2023-04-29T03:45:45;11.40;73.80
14585;DHT22;7379;51.506;11.876;2023-04-29T03:48:12;11.40;73.80
14585;DHT22;7379;51.506;11.876;2023-04-29T03:50:39;11.40;73.80
14585;DHT22;7379;51.506;11.876;2023-04-29T03:53:06;11.40;73.90
14585;DHT22;7379;51.506;11.876;2023-04-29T03:55:32;11.50;74.40
14585;DHT22;7379;51.506;11.876;2023-04-29T03:58:01;11.50;74.20
14585;DHT22;7379;51.506;11.876;2023-04-29T04:00:28;11.40;73.90
14585;DHT22;7379;51.506;11.876;2023-04-29T04:02:56;11.40;74.00
14585;DHT22;7379;51.506;11.876;2023-04-29T04:05:22;11.50;74.10
14585;DHT22;7379;51.506;11.876;2023-04-29T04:07:49;11.50;74.30
14585;DHT22;7379;51.506;11.876;2023-04-29T04:10:16;11.50;74.40
14585;DHT22;7379;51.506;11.876;2023-04-29T04:12:43;11.50;74.30
14585;DHT22;7379;51.506;11.876;2023-04-29T04:15:13;11.50;75.20
14585;DHT22;7379;51.506;11.876;2023-04-29T04:17:41;11.50;74.30
14585;DHT22;7379;51.506;11.876;2023-04-29T04:20:08;11.50;74.70
14585;DHT22;7379;51.506;11.876;2023-04-29T04:22:35;11.50;75.50
14585;DHT22;7379;51.506;11.876;2023-04-29T04:25:02;11.40;74.80
14585;DHT22;7379;51.506;11.876;2023-04-29T04:27:30;11.50;75.30
14585;DHT22;7379;51.506;11.876;2023-04-29T04:29:56;11.50;75.40
14585;DHT22;7379;51.506;11.876;2023-04-29T04:32:25;11.50;75.40
14585;DHT22;7379;51.506;11.876;2023-04-29T04:34:52;11.50;75.70
14585;DHT22;7379;51.506;11.876;2023-04-29T04:37:19;11.50;75.70
14585;DHT22;7379;51.506;11.876;2023-04-29T04:39:46;11.50;76.10
14585;DHT22;7379;51.506;11.876;2023-04-29T04:42:13;11.50;76.40
14585;DHT22;7379;51.506;11.876;2023-04-29T04:44:40;11.50;76.50
14585;DHT22;7379;51.506;11.876;2023-04-29T04:47:07;11.50;76.60
14585;DHT22;7379;51.506;11.876;2023-04-29T04:49:35;11.50;76.50
14585;DHT22;7379;51.506;11.876;2023-04-29T04:52:02;11.50;76.70
14585;DHT22;7379;51.506;11.876;2023-04-29T04:54:29;11.50;77.30
14585;DHT22;7379;51.506;11.876;2023-04-29T04:56:56;11.50;78.20
14585;DHT22;7379;51.506;11.876;2023-04-29T04:59:23;11.50;79.10
14585;DHT22;7379;51.506;11.876;2023-04-29T05:01:50;11.50;79.90
14585;DHT22;7379;51.506;11.876;2023-04-29T05:04:16;11.60;80.10
14585;DHT22;7379;51.506;11.876;2023-04-29T05:06:44;11.50;80.30
14585;DHT22;7379;51.506;11.876;2023-04-29T05:09:12;11.60;81.00
14585;DHT22;7379;51.506;11.876;2023-04-29T05:11:38;11.60;80.60
14585;DHT22;7379;51.506;11.876;2023-04-29T05:14:06;11.60;80.50
14585;DHT22;7379;51.506;11.876;2023-04-29T05:16:33;11.60;81.40
14585;DHT22;7379;51.506;11.876;2023-04-29T05:18:59;11.60;81.80
14585;DHT22;7379;51.506;11.876;2023-04-29T05:21:26;11.60;82.10
14585;DHT22;7379;51.506;11.876;2023-04-29T05:23:54;11.60;81.90
14585;DHT22;7379;51.506;11.876;2023-04-29T05:26:22;11.60;82.10
14585;DHT22;7379;51.506;11.876;2023-04-29T05:28:48;11.60;82.30
14585;DHT22;7379;51.506;11.876;2023-04-29T05:31:15;11.60;83.00
14585;DHT22;7379;51.506;11.876;2023-04-29T05:33:42;11.60;81.90
14585;DHT22;7379;51.506;11.876;2023-04-29T05:36:09;11.70;80.70
14585;DHT22;7379;51.506;11.876;2023-04-29T05:38:35;11.70;81.50
14585;DHT22;7379;51.506;11.876;2023-04-29T05:41:04;11.70;82.50
14585;DHT22;7379;51.506;11.876;2023-04-29T05:43:31;11.70;82.30
14585;DHT22;7379;51.506;11.876;2023-04-29T05:45:57;11.70;82.20
14585;DHT22;7379;51.506;11.876;2023-04-29T05:48:24;11.70;82.70
14585;DHT22;7379;51.506;11.876;2023-04-29T05:50:51;11.70;82.90
14585;DHT22;7379;51.506;11.876;2023-04-29T05:53:18;11.70;83.00
14585;DHT22;7379;51.506;11.876;2023-04-29T05:55:45;11.70;83.00
14585;DHT22;7379;51.506;11.876;2023-04-29T05:58:14;11.70;82.50
14585;DHT22;7379;51.506;11.876;2023-04-29T06:00:40;11.70;82.30
14585;DHT22;7379;51.506;11.876;2023-04-29T06:03:08;11.70;82.30
14585;DHT22;7379;51.506;11.876;2023-04-29T06:05:35;11.70;82.10
14585;DHT22;7379;51.506;11.876;2023-04-29T06:08:03;11.70;81.50
14585;DHT22;7379;51.506;11.876;2023-04-29T06:10:30;11.70;81.50
14585;DHT22;7379;51.506;11.876;2023-04-29T06:12:57;11.70;81.50
14585;DHT22;7379;51.506;11.876;2023-04-29T06:15:26;11.70;81.50
14585;DHT22;7379;51.506;11.876;2023-04-29T06:17:52;11.70;81.50
14585;DHT22;7379;51.506;11.876;2023-04-29T06:20:19;11.70;81.60
14585;DHT22;7379;51.506;11.876;2023-04-29T06:22:46;11.70;81.70
14585;DHT22;7379;51.506;11.876;2023-04-29T06:25:14;11.70;81.90
14585;DHT22;7379;51.506;11.876;2023-04-29T06:27:40;11.80;81.80
14585;DHT22;7379;51.506;11.876;2023-04-29T06:30:08;11.80;81.50
14585;DHT22;7379;51.506;11.876;2023-04-29T06:32:37;11.80;81.50
14585;DHT22;7379;51.506;11.876;2023-04-29T06:35:05;11.80;81.40
14585;DHT22;7379;51.506;11.876;2023-04-29T06:37:32;11.80;81.40
14585;DHT22;7379;51.506;11.876;2023-04-29T06:39:59;11.80;81.40
14585;DHT22;7379;51.506;11.876;2023-04-29T06:42:25;11.80;81.10
14585;DHT22;7379;51.506;11.876;2023-04-29T06:44:52;11.80;81.00
14585;DHT22;7379;51.506;11.876;2023-04-29T06:47:19;11.80;81.00
14585;DHT22;7379;51.506;11.876;2023-04-29T06:49:48;11.80;80.90
14585;DHT22;7379;51.506;11.876;2023-04-29T06:52:14;11.80;81.00
14585;DHT22;7379;51.506;11.876;2023-04-29T06:54:42;11.80;80.80
14585;DHT22;7379;51.506;11.876;2023-04-29T06:57:09;11.80;80.90
14585;DHT22;7379;51.506;11.876;2023-04-29T06:59:35;11.80;80.90
14585;DHT22;7379;51.506;11.876;2023-04-29T07:02:02;11.80;80.90
14585;DHT22;7379;51.506;11.876;2023-04-29T07:04:29;11.80;80.70
14585;DHT22;7379;51.506;11.876;2023-04-29T07:06:57;11.90;80.70
14585;DHT22;7379;51.506;11.876;2023-04-29T07:09:24;11.90;80.60
14585;DHT22;7379;51.506;11.876;2023-04-29T07:11:52;11.90;80.50
14585;DHT22;7379;51.506;11.876;2023-04-29T07:14:19;11.90;80.40
14585;DHT22;7379;51.506;11.876;2023-04-29T07:20:09;11.90;80.40
14585;DHT22;7379;51.506;11.876;2023-04-29T07:22:37;11.80;80.30
14585;DHT22;7379;51.506;11.876;2023-04-29T07:25:05;11.80;80.30
14585;DHT22;7379;51.506;11.876;2023-04-29T07:27:33;11.80;80.30
14585;DHT22;7379;51.506;11.876;2023-04-29T07:30:00;11.90;80.40
14585;DHT22;7379;51.506;11.876;2023-04-29T07:32:27;11.80;80.30
14585;DHT22;7379;51.506;11.876;2023-04-29T07:34:56;11.80;80.30
14585;DHT22;7379;51.506;11.876;2023-04-29T07:37:23;11.80;81.10
14585;DHT22;7379;51.506;11.876;2023-04-29T07:39:51;11.80;81.90
14585;DHT22;7379;51.506;11.876;2023-04-29T07:42:18;11.80;82.50
14585;DHT22;7379;51.506;11.876;2023-04-29T07:44:44;11.70;81.60
14585;DHT22;7379;51.506;11.876;2023-04-29T07:47:11;11.70;81.70
14585;DHT22;7379;51.506;11.876;2023-04-29T07:49:38;11.70;82.40
14585;DHT22;7379;51.506;11.876;2023-04-29T07:52:06;11.70;81.60
14585;DHT22;7379;51.506;11.876;2023-04-29T07:54:34;11.80;81.90
14585;DHT22;7379;51.506;11.876;2023-04-29T07:57:02;11.80;81.80
14585;DHT22;7379;51.506;11.876;2023-04-29T07:59:30;11.80;81.30
14585;DHT22;7379;51.506;11.876;2023-04-29T08:01:56;11.90;81.20
14585;DHT22;7379;51.506;11.876;2023-04-29T08:04:23;11.90;81.20
14585;DHT22;7379;51.506;11.876;2023-04-29T08:06:50;11.90;81.10
14585;DHT22;7379;51.506;11.876;2023-04-29T08:09:17;11.90;80.80
14585;DHT22;7379;51.506;11.876;2023-04-29T08:11:44;12.00;80.40
14585;DHT22;7379;51.506;11.876;2023-04-29T08:14:12;12.00;80.30
14585;DHT22;7379;51.506;11.876;2023-04-29T08:16:39;12.00;80.10
14585;DHT22;7379;51.506;11.876;2023-04-29T08:19:06;12.00;79.90
14585;DHT22;7379;51.506;11.876;2023-04-29T08:21:32;12.00;80.00
14585;DHT22;7379;51.506;11.876;2023-04-29T08:23:59;12.00;79.90
14585;DHT22;7379;51.506;11.876;2023-04-29T08:26:26;12.00;79.70
14585;DHT22;7379;51.506;11.876;2023-04-29T08:28:53;12.00;79.50
14585;DHT22;7379;51.506;11.876;2023-04-29T08:31:21;12.00;79.40
14585;DHT22;7379;51.506;11.876;2023-04-29T08:33:48;12.10;79.50
14585;DHT22;7379;51.506;11.876;2023-04-29T08:36:15;12.00;79.40
14585;DHT22;7379;51.506;11.876;2023-04-29T08:38:42;12.00;79.20
14585;DHT22;7379;51.506;11.876;2023-04-29T08:41:10;12.00;79.00
14585;DHT22;7379;51.506;11.876;2023-04-29T08:43:39;12.00;78.90
14585;DHT22;7379;51.506;11.876;2023-04-29T08:46:06;12.00;79.50
14585;DHT22;7379;51.506;11.876;2023-04-29T08:48:35;12.00;78.70
14585;DHT22;7379;51.506;11.876;2023-04-29T08:51:04;12.00;78.70
14585;DHT22;7379;51.506;11.876;2023-04-29T08:53:31;12.00;78.70
14585;DHT22;7379;51.506;11.876;2023-04-29T08:56:02;12.00;78.60
14585;DHT22;7379;51.506;11.876;2023-04-29T08:58:32;12.00;78.60
14585;DHT22;7379;51.506;11.876;2023-04-29T09:00:59;12.00;78.70
14585;DHT22;7379;51.506;11.876;2023-04-29T09:03:30;12.00;78.60
14585;DHT22;7379;51.506;11.876;2023-04-29T09:06:00;12.00;78.60
14585;DHT22;7379;51.506;11.876;2023-04-29T09:08:27;12.00;78.60
14585;DHT22;7379;51.506;11.876;2023-04-29T09:10:55;12.00;78.70
14585;DHT22;7379;51.506;11.876;2023-04-29T09:13:24;12.00;78.70
14585;DHT22;7379;51.506;11.876;2023-04-29T09:15:51;12.00;78.60
14585;DHT22;7379;51.506;11.876;2023-04-29T09:18:40;12.00;78.60
14585;DHT22;7379;51.506;11.876;2023-04-29T09:21:14;12.00;78.60
14585;DHT22;7379;51.506;11.876;2023-04-29T09:23:41;12.00;78.60
14585;DHT22;7379;51.506;11.876;2023-04-29T09:26:08;12.00;78.60
14585;DHT22;7379;51.506;11.876;2023-04-29T09:28:35;12.00;78.70
14585;DHT22;7379;51.506;11.876;2023-04-29T09:31:02;11.90;78.50
14585;DHT22;7379;51.506;11.876;2023-04-29T09:33:30;11.90;78.60
14585;DHT22;7379;51.506;11.876;2023-04-29T09:35:57;11.90;78.60
14585;DHT22;7379;51.506;11.876;2023-04-29T09:38:26;11.90;78.60
14585;DHT22;7379;51.506;11.876;2023-04-29T09:40:53;11.90;78.40
14585;DHT22;7379;51.506;11.876;2023-04-29T09:43:20;11.90;78.50
14585;DHT22;7379;51.506;11.876;2023-04-29T09:45:48;11.90;78.60
14585;DHT22;7379;51.506;11.876;2023-04-29T09:48:16;12.00;78.70
14585;DHT22;7379;51.506;11.876;2023-04-29T09:50:43;12.00;78.50
14585;DHT22;7379;51.506;11.876;2023-04-29T09:53:28;12.00;78.50
14585;DHT22;7379;51.506;11.876;2023-04-29T09:56:00;12.00;78.30
14585;DHT22;7379;51.506;11.876;2023-04-29T09:58:28;12.00;78.20
14585;DHT22;7379;51.506;11.876;2023-04-29T10:00:58;12.00;78.20
14585;DHT22;7379;51.506;11.876;2023-04-29T10:03:28;12.00;78.00
14585;DHT22;7379;51.506;11.876;2023-04-29T10:05:57;12.00;78.00
14585;DHT22;7379;51.506;11.876;2023-04-29T10:08:25;12.00;77.90
14585;DHT22;7379;51.506;11.876;2023-04-29T10:10:54;12.00;77.90
14585;DHT22;7379;51.506;11.876;2023-04-29T10:13:24;12.00;77.90
14585;DHT22;7379;51.506;11.876;2023-04-29T10:15:57;12.00;77.80
14585;DHT22;7379;51.506;11.876;2023-04-29T10:18:34;12.00;77.70
14585;DHT22;7379;51.506;11.876;2023-04-29T10:21:02;12.00;77.70
14585;DHT22;7379;51.506;11.876;2023-04-29T10:23:29;12.00;77.60
14585;DHT22;7379;51.506;11.876;2023-04-29T10:25:58;12.00;77.60
14585;DHT22;7379;51.506;11.876;2023-04-29T10:28:30;12.00;77.50
14585;DHT22;7379;51.506;11.876;2023-04-29T10:31:00;12.00;77.60
14585;DHT22;7379;51.506;11.876;2023-04-29T10:33:30;12.00;77.60
14585;DHT22;7379;51.506;11.876;2023-04-29T10:35:58;12.00;77.50
14585;DHT22;7379;51.506;11.876;2023-04-29T10:38:30;12.10;77.40
14585;DHT22;7379;51.506;11.876;2023-04-29T10:41:02;12.10;77.40
14585;DHT22;7379;51.506;11.876;2023-04-29T10:43:30;12.10;77.20
14585;DHT22;7379;51.506;11.876;2023-04-29T10:46:18;12.10;77.10
14585;DHT22;7379;51.506;11.876;2023-04-29T10:48:46;12.10;76.90
14585;DHT22;7379;51.506;11.876;2023-04-29T10:51:27;12.10;76.90
14585;DHT22;7379;51.506;11.876;2023-04-29T10:54:00;12.00;76.70
14585;DHT22;7379;51.506;11.876;2023-04-29T10:56:39;12.10;76.80
14585;DHT22;7379;51.506;11.876;2023-04-29T10:59:09;12.00;76.80
14585;DHT22;7379;51.506;11.876;2023-04-29T11:01:48;12.00;76.80
14585;DHT22;7379;51.506;11.876;2023-04-29T11:04:16;12.00;76.70
14585;DHT22;7379;51.506;11.876;2023-04-29T11:06:45;12.10;76.90
14585;DHT22;7379;51.506;11.876;2023-04-29T11:09:17;12.10;77.00
14585;DHT22;7379;51.506;11.876;2023-04-29T11:11:57;12.20;76.90
14585;DHT22;7379;51.506;11.876;2023-04-29T11:14:27;12.10;76.70
14585;DHT22;7379;51.506;11.876;2023-04-29T11:16:56;12.10;76.80
14585;DHT22;7379;51.506;11.876;2023-04-29T11:19:25;12.10;76.60
14585;DHT22;7379;51.506;11.876;2023-04-29T11:22:11;12.20;76.80
14585;DHT22;7379;51.506;11.876;2023-04-29T11:24:49;12.20;77.00
14585;DHT22;7379;51.506;11.876;2023-04-29T11:27:19;12.20;77.00
14585;DHT22;7379;51.506;11.876;2023-04-29T11:29:49;12.20;76.70
14585;DHT22;7379;51.506;11.876;2023-04-29T11:32:19;12.20;77.20
14585;DHT22;7379;51.506;11.876;2023-04-29T11:34:47;12.20;76.50
14585;DHT22;7379;51.506;11.876;2023-04-29T11:37:22;12.20;76.40
14585;DHT22;7379;51.506;11.876;2023-04-29T11:39:49;12.20;76.30
14585;DHT22;7379;51.506;11.876;2023-04-29T11:42:21;12.20;76.10
14585;DHT22;7379;51.506;11.876;2023-04-29T11:44:50;12.20;75.90
14585;DHT22;7379;51.506;11.876;2023-04-29T11:47:18;12.20;76.10
14585;DHT22;7379;51.506;11.876;2023-04-29T11:49:45;12.20;75.90
14585;DHT22;7379;51.506;11.876;2023-04-29T11:52:13;12.20;76.90
14585;DHT22;7379;51.506;11.876;2023-04-29T11:54:40;12.20;76.20
14585;DHT22;7379;51.506;11.876;2023-04-29T11:57:09;12.20;76.10
14585;DHT22;7379;51.506;11.876;2023-04-29T11:59:37;12.20;76.10
14585;DHT22;7379;51.506;11.876;2023-04-29T12:02:10;12.20;76.00
14585;DHT22;7379;51.506;11.876;2023-04-29T12:04:44;12.20;75.90
14585;DHT22;7379;51.506;11.876;2023-04-29T12:07:13;12.30;76.20
14585;DHT22;7379;51.506;11.876;2023-04-29T12:09:41;12.30;76.00
14585;DHT22;7379;51.506;11.876;2023-04-29T12:12:09;12.30;75.70
14585;DHT22;7379;51.506;11.876;2023-04-29T12:14:36;12.30;75.30
14585;DHT22;7379;51.506;11.876;2023-04-29T12:17:04;12.30;75.30
14585;DHT22;7379;51.506;11.876;2023-04-29T12:19:32;12.30;75.40
14585;DHT22;7379;51.506;11.876;2023-04-29T12:21:59;12.30;75.70
14585;DHT22;7379;51.506;11.876;2023-04-29T12:24:26;12.40;75.70
14585;DHT22;7379;51.506;11.876;2023-04-29T12:26:54;12.40;75.40
14585;DHT22;7379;51.506;11.876;2023-04-29T12:29:21;12.40;75.20
14585;DHT22;7379;51.506;11.876;2023-04-29T12:31:48;12.40;74.90
14585;DHT22;7379;51.506;11.876;2023-04-29T12:34:23;12.40;74.80
14585;DHT22;7379;51.506;11.876;2023-04-29T12:36:50;12.30;74.60
14585;DHT22;7379;51.506;11.876;2023-04-29T12:39:17;12.30;74.60
14585;DHT22;7379;51.506;11.876;2023-04-29T12:41:44;12.30;74.60
14585;DHT22;7379;51.506;11.876;2023-04-29T12:44:11;12.30;74.20
14585;DHT22;7379;51.506;11.876;2023-04-29T12:46:38;12.30;74.10
14585;DHT22;7379;51.506;11.876;2023-04-29T12:49:06;12.30;73.80
14585;DHT22;7379;51.506;11.876;2023-04-29T12:51:34;12.30;73.80
14585;DHT22;7379;51.506;11.876;2023-04-29T12:54:03;12.30;73.90
14585;DHT22;7379;51.506;11.876;2023-04-29T12:56:31;12.20;74.10
14585;DHT22;7379;51.506;11.876;2023-04-29T12:59:04;12.30;75.20
14585;DHT22;7379;51.506;11.876;2023-04-29T13:01:31;12.30;74.60
14585;DHT22;7379;51.506;11.876;2023-04-29T13:03:58;12.30;74.70
14585;DHT22;7379;51.506;11.876;2023-04-29T13:06:25;12.30;74.90
14585;DHT22;7379;51.506;11.876;2023-04-29T13:08:53;12.30;74.90
14585;DHT22;7379;51.506;11.876;2023-04-29T13:11:20;12.30;75.00
14585;DHT22;7379;51.506;11.876;2023-04-29T13:13:47;12.30;75.10
14585;DHT22;7379;51.506;11.876;2023-04-29T13:16:13;12.40;75.10
14585;DHT22;7379;51.506;11.876;2023-04-29T13:18:41;12.40;75.10
14585;DHT22;7379;51.506;11.876;2023-04-29T13:21:08;12.40;74.60
14585;DHT22;7379;51.506;11.876;2023-04-29T13:23:35;12.40;74.40
14585;DHT22;7379;51.506;11.876;2023-04-29T13:26:03;12.40;73.90
14585;DHT22;7379;51.506;11.876;2023-04-29T13:28:30;12.50;74.10
14585;DHT22;7379;51.506;11.876;2023-04-29T13:30:57;12.50;74.10
14585;DHT22;7379;51.506;11.876;2023-04-29T13:33:24;12.50;73.90
14585;DHT22;7379;51.506;11.876;2023-04-29T13:35:50;12.60;73.80
14585;DHT22;7379;51.506;11.876;2023-04-29T13:38:17;12.60;73.70
14585;DHT22;7379;51.506;11.876;2023-04-29T13:40:44;12.70;73.80
14585;DHT22;7379;51.506;11.876;2023-04-29T13:43:12;12.70;73.70
14585;DHT22;7379;51.506;11.876;2023-04-29T13:45:39;12.80;73.60
14585;DHT22;7379;51.506;11.876;2023-04-29T13:48:06;12.90;73.20
14585;DHT22;7379;51.506;11.876;2023-04-29T13:50:33;13.00;72.70
14585;DHT22;7379;51.506;11.876;2023-04-29T13:53:00;13.00;72.30
14585;DHT22;7379;51.506;11.876;2023-04-29T13:55:27;13.00;72.30
14585;DHT22;7379;51.506;11.876;2023-04-29T13:57:54;12.90;72.30
14585;DHT22;7379;51.506;11.876;2023-04-29T14:00:22;12.90;72.30
14585;DHT22;7379;51.506;11.876;2023-04-29T14:02:49;12.90;72.90
14585;DHT22;7379;51.506;11.876;2023-04-29T14:05:16;12.90;73.20
14585;DHT22;7379;51.506;11.876;2023-04-29T14:07:43;12.90;73.50
14585;DHT22;7379;51.506;11.876;2023-04-29T14:10:10;12.90;73.80
14585;DHT22;7379;51.506;11.876;2023-04-29T14:12:37;12.90;73.00
14585;DHT22;7379;51.506;11.876;2023-04-29T14:15:05;12.90;73.10
14585;DHT22;7379;51.506;11.876;2023-04-29T14:17:33;12.90;72.70
14585;DHT22;7379;51.506;11.876;2023-04-29T14:20:01;12.80;71.80
14585;DHT22;7379;51.506;11.876;2023-04-29T14:22:28;12.80;71.50
14585;DHT22;7379;51.506;11.876;2023-04-29T14:24:55;12.80;72.80
14585;DHT22;7379;51.506;11.876;2023-04-29T14:27:22;12.80;72.00
14585;DHT22;7379;51.506;11.876;2023-04-29T14:29:49;12.80;71.40
14585;DHT22;7379;51.506;11.876;2023-04-29T14:32:15;12.80;71.40
14585;DHT22;7379;51.506;11.876;2023-04-29T14:34:43;12.90;71.50
14585;DHT22;7379;51.506;11.876;2023-04-29T14:37:10;12.90;70.80
14585;DHT22;7379;51.506;11.876;2023-04-29T14:39:37;13.00;71.00
14585;DHT22;7379;51.506;11.876;2023-04-29T14:42:04;13.00;71.00
14585;DHT22;7379;51.506;11.876;2023-04-29T14:44:31;13.10;70.30
14585;DHT22;7379;51.506;11.876;2023-04-29T14:46:57;13.10;70.10
14585;DHT22;7379;51.506;11.876;2023-04-29T14:49:25;13.10;69.40
14585;DHT22;7379;51.506;11.876;2023-04-29T14:51:53;13.10;69.20
14585;DHT22;7379;51.506;11.876;2023-04-29T14:54:20;13.10;69.50
14585;DHT22;7379;51.506;11.876;2023-04-29T14:56:47;13.10;69.80
14585;DHT22;7379;51.506;11.876;2023-04-29T14:59:14;13.10;69.60
14585;DHT22;7379;51.506;11.876;2023-04-29T15:01:41;13.10;69.30
14585;DHT22;7379;51.506;11.876;2023-04-29T15:04:08;13.10;69.60
14585;DHT22;7379;51.506;11.876;2023-04-29T15:06:34;13.10;69.50
14585;DHT22;7379;51.506;11.876;2023-04-29T15:09:03;13.10;69.80
14585;DHT22;7379;51.506;11.876;2023-04-29T15:11:30;13.10;70.30
14585;DHT22;7379;51.506;11.876;2023-04-29T15:13:57;13.10;70.30
14585;DHT22;7379;51.506;11.876;2023-04-29T15:16:24;13.10;70.10
14585;DHT22;7379;51.506;11.876;2023-04-29T15:18:53;13.00;70.00
14585;DHT22;7379;51.506;11.876;2023-04-29T15:21:19;13.00;70.10
14585;DHT22;7379;51.506;11.876;2023-04-29T15:23:46;13.00;69.50
14585;DHT22;7379;51.506;11.876;2023-04-29T15:26:14;13.00;70.10
14585;DHT22;7379;51.506;11.876;2023-04-29T15:28:41;13.00;70.10
14585;DHT22;7379;51.506;11.876;2023-04-29T15:31:10;13.00;70.20
14585;DHT22;7379;51.506;11.876;2023-04-29T15:33:36;13.00;69.80
14585;DHT22;7379;51.506;11.876;2023-04-29T15:36:04;13.00;70.10
14585;DHT22;7379;51.506;11.876;2023-04-29T15:38:32;13.00;71.10